sensor_id;sensor_type;location;lat;lon;timestamp;pressure;altitude;pressure_sealevel;temperature;humidity
22241;BME280;11289;52.524;13.694;2022-09-09T00:06:20;100435.97;;;15.43;85.99
22241;BME280;11289;52.524;13.694;2022-09-09T00:09:12;100425.16;;;15.41;85.77
22241;BME280;11289;52.524;13.694;2022-09-09T00:14:45;100424.53;;;15.32;85.27
22241;BME280;11289;52.524;13.694;2022-09-09T00:22:29;100424.06;;;15.26;85.48
22241;BME280;11289;52.524;13.694;2022-09-09T00:25:10;100434.13;;;15.31;85.11
22241;BME280;11289;52.524;13.694;2022-09-09T00:27:42;100427.28;;;15.28;85.12
22241;BME280;11289;52.524;13.694;2022-09-09T00:30:18;100420.38;;;15.22;85.20
22241;BME280;11289;52.524;13.694;2022-09-09T00:33:10;100427.22;;;15.25;84.86
22241;BME280;11289;52.524;13.694;2022-09-09T00:35:38;100425.50;;;15.20;84.70
22241;BME280;11289;52.524;13.694;2022-09-09T00:43:40;100422.28;;;15.18;84.87
22241;BME280;11289;52.524;13.694;2022-09-09T00:57:44;100430.88;;;15.09;85.07
22241;BME280;11289;52.524;13.694;2022-09-09T01:05:41;100445.59;;;15.06;84.49
22241;BME280;11289;52.524;13.694;2022-09-09T01:10:59;100441.00;;;14.98;84.18
22241;BME280;11289;52.524;13.694;2022-09-09T01:13:30;100439.00;;;14.98;84.29
22241;BME280;11289;52.524;13.694;2022-09-09T01:15:58;100448.13;;;14.95;84.00
22241;BME280;11289;52.524;13.694;2022-09-09T01:18:34;100442.00;;;14.90;83.63
22241;BME280;11289;52.524;13.694;2022-09-09T01:21:05;100443.63;;;14.91;83.91
22241;BME280;11289;52.524;13.694;2022-09-09T01:26:21;100442.75;;;14.87;83.39
22241;BME280;11289;52.524;13.694;2022-09-09T01:28:50;100444.31;;;14.84;82.97
22241;BME280;11289;52.524;13.694;2022-09-09T01:31:21;100446.19;;;14.80;83.02
22241;BME280;11289;52.524;13.694;2022-09-09T01:33:48;100444.84;;;14.74;83.09
22241;BME280;11289;52.524;13.694;2022-09-09T01:36:19;100440.34;;;14.69;82.83
22241;BME280;11289;52.524;13.694;2022-09-09T01:38:46;100437.09;;;14.67;82.67
22241;BME280;11289;52.524;13.694;2022-09-09T01:41:12;100435.41;;;14.62;82.50
22241;BME280;11289;52.524;13.694;2022-09-09T01:43:37;100425.72;;;14.60;82.28
22241;BME280;11289;52.524;13.694;2022-09-09T01:46:02;100418.34;;;14.52;82.75
22241;BME280;11289;52.524;13.694;2022-09-09T01:48:29;100438.81;;;14.56;82.58
22241;BME280;11289;52.524;13.694;2022-09-09T01:50:55;100429.25;;;14.57;82.66
22241;BME280;11289;52.524;13.694;2022-09-09T01:53:21;100430.69;;;14.51;82.54
22241;BME280;11289;52.524;13.694;2022-09-09T01:56:17;100419.44;;;14.47;82.23
22241;BME280;11289;52.524;13.694;2022-09-09T02:02:03;100430.88;;;14.42;82.22
22241;BME280;11289;52.524;13.694;2022-09-09T02:04:49;100430.00;;;14.38;82.44
22241;BME280;11289;52.524;13.694;2022-09-09T02:09:57;100429.34;;;14.28;82.38
22241;BME280;11289;52.524;13.694;2022-09-09T02:12:25;100438.19;;;14.31;82.50
22241;BME280;11289;52.524;13.694;2022-09-09T02:14:56;100436.94;;;14.28;82.63
22241;BME280;11289;52.524;13.694;2022-09-09T02:17:30;100435.94;;;14.20;82.84
22241;BME280;11289;52.524;13.694;2022-09-09T02:19:59;100448.81;;;14.25;83.09
22241;BME280;11289;52.524;13.694;2022-09-09T02:22:29;100444.22;;;14.17;83.39
22241;BME280;11289;52.524;13.694;2022-09-09T02:24:58;100448.63;;;14.18;83.33
22241;BME280;11289;52.524;13.694;2022-09-09T02:27:25;100449.38;;;14.15;83.38
22241;BME280;11289;52.524;13.694;2022-09-09T02:29:52;100441.34;;;14.13;82.98
22241;BME280;11289;52.524;13.694;2022-09-09T02:32:22;100447.28;;;14.12;83.15
22241;BME280;11289;52.524;13.694;2022-09-09T02:34:55;100442.88;;;14.10;83.05
22241;BME280;11289;52.524;13.694;2022-09-09T02:37:24;100431.53;;;14.03;82.89
22241;BME280;11289;52.524;13.694;2022-09-09T02:39:54;100445.31;;;14.12;82.83
22241;BME280;11289;52.524;13.694;2022-09-09T02:42:19;100437.09;;;14.03;82.85
22241;BME280;11289;52.524;13.694;2022-09-09T02:44:45;100440.69;;;14.04;83.01
22241;BME280;11289;52.524;13.694;2022-09-09T02:47:25;100441.16;;;14.06;82.96
22241;BME280;11289;52.524;13.694;2022-09-09T02:53:19;100441.41;;;14.01;82.88
22241;BME280;11289;52.524;13.694;2022-09-09T02:55:45;100440.16;;;13.98;83.05
22241;BME280;11289;52.524;13.694;2022-09-09T02:58:16;100425.56;;;13.89;83.37
22241;BME280;11289;52.524;13.694;2022-09-09T03:00:49;100432.06;;;13.93;83.91
22241;BME280;11289;52.524;13.694;2022-09-09T03:03:15;100430.06;;;13.93;83.91
22241;BME280;11289;52.524;13.694;2022-09-09T03:05:42;100428.34;;;13.89;83.90
22241;BME280;11289;52.524;13.694;2022-09-09T03:08:08;100436.09;;;13.96;83.52
22241;BME280;11289;52.524;13.694;2022-09-09T03:10:34;100434.38;;;13.91;83.30
22241;BME280;11289;52.524;13.694;2022-09-09T03:13:00;100436.00;;;13.92;83.52
22241;BME280;11289;52.524;13.694;2022-09-09T03:15:26;100440.66;;;13.88;83.46
22241;BME280;11289;52.524;13.694;2022-09-09T03:17:56;100439.31;;;13.82;83.18
22241;BME280;11289;52.524;13.694;2022-09-09T03:20:23;100420.31;;;13.71;83.21
22241;BME280;11289;52.524;13.694;2022-09-09T03:22:49;100445.25;;;13.80;83.19
22241;BME280;11289;52.524;13.694;2022-09-09T03:25:14;100456.41;;;13.80;83.05
22241;BME280;11289;52.524;13.694;2022-09-09T03:27:40;100446.53;;;13.83;83.43
22241;BME280;11289;52.524;13.694;2022-09-09T03:30:06;100460.28;;;13.75;83.51
22241;BME280;11289;52.524;13.694;2022-09-09T03:32:31;100461.88;;;13.76;83.41
22241;BME280;11289;52.524;13.694;2022-09-09T03:34:57;100462.81;;;13.81;83.67
22241;BME280;11289;52.524;13.694;2022-09-09T03:37:22;100462.00;;;13.80;83.95
22241;BME280;11289;52.524;13.694;2022-09-09T03:39:48;100446.94;;;13.69;83.67
22241;BME280;11289;52.524;13.694;2022-09-09T03:42:14;100465.88;;;13.75;83.68
22241;BME280;11289;52.524;13.694;2022-09-09T03:44:40;100463.31;;;13.70;83.70
22241;BME280;11289;52.524;13.694;2022-09-09T03:47:07;100469.25;;;13.69;83.50
22241;BME280;11289;52.524;13.694;2022-09-09T03:49:32;100456.38;;;13.64;83.54
22241;BME280;11289;52.524;13.694;2022-09-09T03:51:58;100457.53;;;13.63;83.87
22241;BME280;11289;52.524;13.694;2022-09-09T03:54:24;100463.59;;;13.65;84.11
22241;BME280;11289;52.524;13.694;2022-09-09T03:56:50;100461.41;;;13.58;83.79
22241;BME280;11289;52.524;13.694;2022-09-09T03:59:16;100468.25;;;13.61;83.95
22241;BME280;11289;52.524;13.694;2022-09-09T04:01:41;100477.78;;;13.60;83.74
22241;BME280;11289;52.524;13.694;2022-09-09T04:04:07;100474.06;;;13.56;83.41
22241;BME280;11289;52.524;13.694;2022-09-09T04:06:32;100469.13;;;13.49;83.05
22241;BME280;11289;52.524;13.694;2022-09-09T04:08:58;100464.22;;;13.46;83.13
22241;BME280;11289;52.524;13.694;2022-09-09T04:11:23;100463.41;;;13.46;83.18
22241;BME280;11289;52.524;13.694;2022-09-09T04:13:48;100453.56;;;13.36;83.25
22241;BME280;11289;52.524;13.694;2022-09-09T04:16:14;100468.91;;;13.42;83.80
22241;BME280;11289;52.524;13.694;2022-09-09T04:18:40;100470.88;;;13.41;83.97
22241;BME280;11289;52.524;13.694;2022-09-09T04:21:06;100472.28;;;13.35;83.60
22241;BME280;11289;52.524;13.694;2022-09-09T04:23:33;100463.91;;;13.35;83.90
22241;BME280;11289;52.524;13.694;2022-09-09T04:26:00;100467.88;;;13.34;84.04
22241;BME280;11289;52.524;13.694;2022-09-09T04:28:28;100464.47;;;13.29;83.71
22241;BME280;11289;52.524;13.694;2022-09-09T04:30:54;100470.06;;;13.29;83.46
22241;BME280;11289;52.524;13.694;2022-09-09T04:33:19;100466.94;;;13.30;83.43
22241;BME280;11289;52.524;13.694;2022-09-09T04:35:49;100467.53;;;13.23;83.53
22241;BME280;11289;52.524;13.694;2022-09-09T04:38:16;100467.88;;;13.22;83.99
22241;BME280;11289;52.524;13.694;2022-09-09T04:40:51;100470.66;;;13.22;83.82
22241;BME280;11289;52.524;13.694;2022-09-09T04:43:17;100472.97;;;13.20;83.41
22241;BME280;11289;52.524;13.694;2022-09-09T04:45:46;100483.22;;;13.16;83.63
22241;BME280;11289;52.524;13.694;2022-09-09T04:48:11;100485.66;;;13.17;83.52
22241;BME280;11289;52.524;13.694;2022-09-09T04:50:37;100496.09;;;13.20;83.17
22241;BME280;11289;52.524;13.694;2022-09-09T04:53:03;100492.03;;;13.18;83.33
22241;BME280;11289;52.524;13.694;2022-09-09T04:55:30;100488.91;;;13.19;83.72
22241;BME280;11289;52.524;13.694;2022-09-09T04:57:56;100485.09;;;13.12;83.80
22241;BME280;11289;52.524;13.694;2022-09-09T05:00:22;100488.81;;;13.16;83.82
22241;BME280;11289;52.524;13.694;2022-09-09T05:02:48;100500.41;;;13.18;83.94
22241;BME280;11289;52.524;13.694;2022-09-09T05:05:13;100488.69;;;13.12;83.86
22241;BME280;11289;52.524;13.694;2022-09-09T05:07:38;100492.41;;;13.16;84.10
22241;BME280;11289;52.524;13.694;2022-09-09T05:10:04;100488.34;;;13.14;84.52
22241;BME280;11289;52.524;13.694;2022-09-09T05:12:31;100503.28;;;13.21;84.69
22241;BME280;11289;52.524;13.694;2022-09-09T05:14:57;100509.22;;;13.20;84.86
22241;BME280;11289;52.524;13.694;2022-09-09T05:17:23;100509.34;;;13.23;84.80
22241;BME280;11289;52.524;13.694;2022-09-09T05:19:48;100494.13;;;13.21;85.13
22241;BME280;11289;52.524;13.694;2022-09-09T05:22:19;100509.91;;;13.29;85.20
22241;BME280;11289;52.524;13.694;2022-09-09T05:24:45;100508.41;;;13.32;85.75
22241;BME280;11289;52.524;13.694;2022-09-09T05:27:11;100502.81;;;13.32;86.08
22241;BME280;11289;52.524;13.694;2022-09-09T05:29:37;100510.59;;;13.38;86.20
22241;BME280;11289;52.524;13.694;2022-09-09T05:32:03;100521.88;;;13.42;87.08
22241;BME280;11289;52.524;13.694;2022-09-09T05:34:29;100503.16;;;13.43;86.93
22241;BME280;11289;52.524;13.694;2022-09-09T05:36:54;100518.13;;;13.50;87.26
22241;BME280;11289;52.524;13.694;2022-09-09T05:39:20;100521.47;;;13.56;87.38
22241;BME280;11289;52.524;13.694;2022-09-09T05:41:46;100516.38;;;13.58;87.84
22241;BME280;11289;52.524;13.694;2022-09-09T05:44:11;100513.69;;;13.62;88.46
22241;BME280;11289;52.524;13.694;2022-09-09T05:46:37;100511.69;;;13.62;89.18
22241;BME280;11289;52.524;13.694;2022-09-09T05:49:03;100509.94;;;13.70;89.31
22241;BME280;11289;52.524;13.694;2022-09-09T05:51:30;100505.72;;;13.76;89.37
22241;BME280;11289;52.524;13.694;2022-09-09T05:53:56;100507.78;;;13.79;89.12
22241;BME280;11289;52.524;13.694;2022-09-09T05:56:26;100522.88;;;13.90;89.31
22241;BME280;11289;52.524;13.694;2022-09-09T05:58:53;100515.78;;;13.93;89.74
22241;BME280;11289;52.524;13.694;2022-09-09T06:01:24;100515.50;;;13.98;89.42
22241;BME280;11289;52.524;13.694;2022-09-09T06:03:51;100518.47;;;14.05;89.09
22241;BME280;11289;52.524;13.694;2022-09-09T06:06:22;100513.75;;;14.06;89.43
22241;BME280;11289;52.524;13.694;2022-09-09T06:08:51;100521.47;;;14.13;89.55
22241;BME280;11289;52.524;13.694;2022-09-09T06:11:23;100521.22;;;14.18;89.70
22241;BME280;11289;52.524;13.694;2022-09-09T06:13:49;100519.22;;;14.18;89.86
22241;BME280;11289;52.524;13.694;2022-09-09T06:16:19;100529.78;;;14.25;89.71
22241;BME280;11289;52.524;13.694;2022-09-09T06:18:45;100528.16;;;14.24;89.99
22241;BME280;11289;52.524;13.694;2022-09-09T06:21:19;100535.03;;;14.42;90.93
22241;BME280;11289;52.524;13.694;2022-09-09T06:23:45;100534.59;;;14.56;90.94
22241;BME280;11289;52.524;13.694;2022-09-09T06:28:44;100529.00;;;15.04;89.86
22241;BME280;11289;52.524;13.694;2022-09-09T06:31:12;100530.81;;;15.32;89.85
22241;BME280;11289;52.524;13.694;2022-09-09T06:33:41;100528.72;;;15.45;88.16
22241;BME280;11289;52.524;13.694;2022-09-09T06:36:14;100533.97;;;15.66;87.56
22241;BME280;11289;52.524;13.694;2022-09-09T06:38:43;100535.31;;;15.92;88.01
22241;BME280;11289;52.524;13.694;2022-09-09T06:41:10;100530.44;;;16.08;86.45
22241;BME280;11289;52.524;13.694;2022-09-09T06:43:35;100538.78;;;16.28;86.40
22241;BME280;11289;52.524;13.694;2022-09-09T06:46:10;100540.88;;;16.54;86.44
22241;BME280;11289;52.524;13.694;2022-09-09T06:48:36;100536.09;;;16.78;85.20
22241;BME280;11289;52.524;13.694;2022-09-09T06:51:10;100541.63;;;16.97;84.76
22241;BME280;11289;52.524;13.694;2022-09-09T06:53:37;100549.84;;;17.10;82.13
22241;BME280;11289;52.524;13.694;2022-09-09T06:58:43;100542.25;;;17.40;82.97
22241;BME280;11289;52.524;13.694;2022-09-09T07:01:14;100544.13;;;17.60;82.09
22241;BME280;11289;52.524;13.694;2022-09-09T07:03:40;100541.47;;;17.70;82.03
22241;BME280;11289;52.524;13.694;2022-09-09T07:06:09;100544.47;;;17.85;80.36
22241;BME280;11289;52.524;13.694;2022-09-09T07:08:40;100546.31;;;18.04;79.67
22241;BME280;11289;52.524;13.694;2022-09-09T07:11:07;100555.31;;;18.20;80.63
22241;BME280;11289;52.524;13.694;2022-09-09T07:13:34;100542.47;;;18.19;81.87
22241;BME280;11289;52.524;13.694;2022-09-09T07:16:10;100549.13;;;18.41;80.08
22241;BME280;11289;52.524;13.694;2022-09-09T07:18:36;100545.25;;;18.57;79.21
22241;BME280;11289;52.524;13.694;2022-09-09T07:21:03;100545.75;;;18.66;78.36
22241;BME280;11289;52.524;13.694;2022-09-09T07:23:29;100547.06;;;18.79;78.67
22241;BME280;11289;52.524;13.694;2022-09-09T07:25:56;100552.00;;;18.93;78.66
22241;BME280;11289;52.524;13.694;2022-09-09T07:28:22;100555.28;;;18.99;76.08
22241;BME280;11289;52.524;13.694;2022-09-09T07:30:58;100540.69;;;18.86;76.86
22241;BME280;11289;52.524;13.694;2022-09-09T07:33:25;100547.94;;;18.87;77.73
22241;BME280;11289;52.524;13.694;2022-09-09T07:35:51;100556.84;;;18.96;78.55
22241;BME280;11289;52.524;13.694;2022-09-09T07:38:17;100542.09;;;19.07;77.90
22241;BME280;11289;52.524;13.694;2022-09-09T07:40:42;100545.81;;;19.25;77.83
22241;BME280;11289;52.524;13.694;2022-09-09T07:43:09;100543.91;;;19.44;77.39
22241;BME280;11289;52.524;13.694;2022-09-09T07:45:34;100544.38;;;19.60;75.97
22241;BME280;11289;52.524;13.694;2022-09-09T07:48:01;100551.69;;;19.69;74.23
22241;BME280;11289;52.524;13.694;2022-09-09T07:50:27;100549.34;;;19.81;73.67
22241;BME280;11289;52.524;13.694;2022-09-09T07:52:52;100557.88;;;19.99;73.01
22241;BME280;11289;52.524;13.694;2022-09-09T07:55:21;100562.34;;;20.08;75.47
22241;BME280;11289;52.524;13.694;2022-09-09T07:57:50;100559.13;;;20.09;71.49
22241;BME280;11289;52.524;13.694;2022-09-09T08:00:16;100555.53;;;20.27;73.97
22241;BME280;11289;52.524;13.694;2022-09-09T08:02:41;100558.00;;;20.57;75.58
22241;BME280;11289;52.524;13.694;2022-09-09T08:05:07;100549.97;;;20.63;70.35
22241;BME280;11289;52.524;13.694;2022-09-09T08:07:32;100560.06;;;20.82;69.74
22241;BME280;11289;52.524;13.694;2022-09-09T08:09:58;100570.94;;;20.83;71.59
22241;BME280;11289;52.524;13.694;2022-09-09T08:12:23;100563.69;;;20.79;70.59
22241;BME280;11289;52.524;13.694;2022-09-09T08:14:48;100565.31;;;20.94;69.66
22241;BME280;11289;52.524;13.694;2022-09-09T08:17:14;100565.69;;;21.18;71.24
22241;BME280;11289;52.524;13.694;2022-09-09T08:19:40;100567.31;;;21.22;69.48
22241;BME280;11289;52.524;13.694;2022-09-09T08:22:05;100567.31;;;21.15;68.51
22241;BME280;11289;52.524;13.694;2022-09-09T08:24:30;100570.53;;;21.21;65.76
22241;BME280;11289;52.524;13.694;2022-09-09T08:26:56;100572.91;;;21.44;67.33
22241;BME280;11289;52.524;13.694;2022-09-09T08:29:22;100568.06;;;21.48;66.41
22241;BME280;11289;52.524;13.694;2022-09-09T08:31:52;100564.41;;;21.66;68.25
22241;BME280;11289;52.524;13.694;2022-09-09T08:34:20;100565.94;;;21.88;66.35
22241;BME280;11289;52.524;13.694;2022-09-09T08:36:47;100570.66;;;22.13;66.31
22241;BME280;11289;52.524;13.694;2022-09-09T08:39:14;100578.63;;;22.40;65.19
22241;BME280;11289;52.524;13.694;2022-09-09T08:47:20;100575.09;;;22.14;62.92
22241;BME280;11289;52.524;13.694;2022-09-09T08:58:15;100582.63;;;21.18;63.60
22241;BME280;11289;52.524;13.694;2022-09-09T09:09:23;100582.63;;;20.75;65.64
22241;BME280;11289;52.524;13.694;2022-09-09T09:11:55;100576.19;;;20.74;65.20
22241;BME280;11289;52.524;13.694;2022-09-09T09:14:28;100574.19;;;20.71;64.57
22241;BME280;11289;52.524;13.694;2022-09-09T09:17:07;100582.63;;;20.75;65.71
22241;BME280;11289;52.524;13.694;2022-09-09T09:19:35;100577.81;;;20.79;64.94
22241;BME280;11289;52.524;13.694;2022-09-09T09:27:34;100580.59;;;21.36;63.05
22241;BME280;11289;52.524;13.694;2022-09-09T09:30:10;100574.84;;;21.80;64.39
22241;BME280;11289;52.524;13.694;2022-09-09T09:32:39;100562.53;;;22.26;60.77
22241;BME280;11289;52.524;13.694;2022-09-09T09:35:12;100570.84;;;22.55;60.63
22241;BME280;11289;52.524;13.694;2022-09-09T09:37:40;100576.50;;;22.55;58.86
22241;BME280;11289;52.524;13.694;2022-09-09T09:40:15;100569.19;;;22.61;59.21
22241;BME280;11289;52.524;13.694;2022-09-09T09:42:49;100580.41;;;22.75;59.89
22241;BME280;11289;52.524;13.694;2022-09-09T09:45:33;100568.91;;;23.01;58.41
22241;BME280;11289;52.524;13.694;2022-09-09T09:48:08;100579.34;;;23.07;57.34
22241;BME280;11289;52.524;13.694;2022-09-09T09:50:35;100580.56;;;23.06;57.79
22241;BME280;11289;52.524;13.694;2022-09-09T09:53:03;100575.31;;;23.12;57.51
22241;BME280;11289;52.524;13.694;2022-09-09T09:55:34;100574.25;;;23.37;57.43
22241;BME280;11289;52.524;13.694;2022-09-09T09:58:05;100581.97;;;23.71;55.74
22241;BME280;11289;52.524;13.694;2022-09-09T10:00:32;100573.81;;;24.11;55.11
22241;BME280;11289;52.524;13.694;2022-09-09T10:03:00;100580.00;;;24.33;53.10
22241;BME280;11289;52.524;13.694;2022-09-09T10:05:28;100579.63;;;24.58;52.20
22241;BME280;11289;52.524;13.694;2022-09-09T10:08:12;100573.75;;;24.96;53.27
22241;BME280;11289;52.524;13.694;2022-09-09T10:10:51;100572.38;;;25.32;53.13
22241;BME280;11289;52.524;13.694;2022-09-09T10:19:03;100586.00;;;26.04;50.10
22241;BME280;11289;52.524;13.694;2022-09-09T10:29:37;100565.44;;;26.70;45.88
22241;BME280;11289;52.524;13.694;2022-09-09T10:35:04;100576.47;;;27.01;45.75
22241;BME280;11289;52.524;13.694;2022-09-09T10:40:36;100563.88;;;26.49;47.13
22241;BME280;11289;52.524;13.694;2022-09-09T10:43:46;100572.75;;;26.71;46.88
22241;BME280;11289;52.524;13.694;2022-09-09T10:57:25;100575.44;;;26.58;46.20
22241;BME280;11289;52.524;13.694;2022-09-09T10:59:57;100586.03;;;26.21;46.72
22241;BME280;11289;52.524;13.694;2022-09-09T11:02:29;100578.09;;;25.92;47.50
22241;BME280;11289;52.524;13.694;2022-09-09T11:05:03;100583.47;;;25.86;47.54
22241;BME280;11289;52.524;13.694;2022-09-09T11:07:41;100589.03;;;25.74;49.02
22241;BME280;11289;52.524;13.694;2022-09-09T11:13:44;100580.66;;;26.06;48.19
22241;BME280;11289;52.524;13.694;2022-09-09T11:18:49;100567.88;;;26.51;45.47
22241;BME280;11289;52.524;13.694;2022-09-09T11:21:23;100582.88;;;26.72;46.02
22241;BME280;11289;52.524;13.694;2022-09-09T11:23:57;100579.78;;;26.83;46.23
22241;BME280;11289;52.524;13.694;2022-09-09T11:26:32;100574.44;;;27.01;45.45
22241;BME280;11289;52.524;13.694;2022-09-09T11:29:24;100567.97;;;27.30;42.35
22241;BME280;11289;52.524;13.694;2022-09-09T11:40:55;100573.75;;;28.02;42.67
22241;BME280;11289;52.524;13.694;2022-09-09T11:43:29;100584.25;;;28.05;41.93
22241;BME280;11289;52.524;13.694;2022-09-09T11:45:58;100578.19;;;28.03;42.81
22241;BME280;11289;52.524;13.694;2022-09-09T11:51:07;100575.84;;;28.27;41.69
22241;BME280;11289;52.524;13.694;2022-09-09T11:53:35;100563.31;;;28.50;41.34
22241;BME280;11289;52.524;13.694;2022-09-09T11:56:06;100571.63;;;28.57;42.27
22241;BME280;11289;52.524;13.694;2022-09-09T11:58:38;100566.88;;;28.80;41.69
22241;BME280;11289;52.524;13.694;2022-09-09T12:06:46;100555.53;;;28.25;42.51
22241;BME280;11289;52.524;13.694;2022-09-09T12:11:44;100552.09;;;27.75;41.94
22241;BME280;11289;52.524;13.694;2022-09-09T12:14:21;100531.81;;;27.43;42.37
22241;BME280;11289;52.524;13.694;2022-09-09T12:16:47;100531.00;;;27.43;42.31
22241;BME280;11289;52.524;13.694;2022-09-09T12:19:23;100536.25;;;27.74;42.76
22241;BME280;11289;52.524;13.694;2022-09-09T12:22:15;100532.63;;;27.86;42.57
22241;BME280;11289;52.524;13.694;2022-09-09T12:25:16;100541.13;;;28.16;41.82
22241;BME280;11289;52.524;13.694;2022-09-09T12:30:17;100537.00;;;28.04;41.05
22241;BME280;11289;52.524;13.694;2022-09-09T12:32:42;100521.53;;;27.88;41.15
22241;BME280;11289;52.524;13.694;2022-09-09T12:35:20;100533.69;;;27.63;40.86
22241;BME280;11289;52.524;13.694;2022-09-09T12:37:51;100531.06;;;27.56;40.57
22241;BME280;11289;52.524;13.694;2022-09-09T12:40:30;100518.16;;;27.51;40.60
22241;BME280;11289;52.524;13.694;2022-09-09T12:42:57;100513.19;;;27.39;41.60
22241;BME280;11289;52.524;13.694;2022-09-09T12:45:28;100521.22;;;27.44;42.94
22241;BME280;11289;52.524;13.694;2022-09-09T12:48:07;100519.41;;;27.50;42.06
22241;BME280;11289;52.524;13.694;2022-09-09T12:50:52;100518.66;;;27.62;41.95
22241;BME280;11289;52.524;13.694;2022-09-09T12:53:26;100515.19;;;27.84;40.55
22241;BME280;11289;52.524;13.694;2022-09-09T12:56:06;100506.50;;;27.88;39.46
22241;BME280;11289;52.524;13.694;2022-09-09T12:58:36;100511.97;;;27.82;40.84
22241;BME280;11289;52.524;13.694;2022-09-09T13:01:04;100509.91;;;27.40;39.75
22241;BME280;11289;52.524;13.694;2022-09-09T13:03:31;100507.88;;;27.24;40.67
22241;BME280;11289;52.524;13.694;2022-09-09T13:05:59;100515.75;;;27.04;41.61
22241;BME280;11289;52.524;13.694;2022-09-09T13:08:35;100513.34;;;27.02;42.69
22241;BME280;11289;52.524;13.694;2022-09-09T13:11:04;100516.56;;;27.04;41.29
22241;BME280;11289;52.524;13.694;2022-09-09T13:13:36;100523.06;;;27.05;41.97
22241;BME280;11289;52.524;13.694;2022-09-09T13:16:04;100517.56;;;26.81;41.51
22241;BME280;11289;52.524;13.694;2022-09-09T13:18:35;100528.13;;;26.64;43.26
22241;BME280;11289;52.524;13.694;2022-09-09T13:21:01;100518.06;;;26.43;43.43
22241;BME280;11289;52.524;13.694;2022-09-09T13:23:29;100503.75;;;26.30;42.37
22241;BME280;11289;52.524;13.694;2022-09-09T13:25:58;100519.19;;;26.13;43.79
22241;BME280;11289;52.524;13.694;2022-09-09T13:28:29;100492.22;;;26.01;45.11
22241;BME280;11289;52.524;13.694;2022-09-09T13:30:59;100511.31;;;26.00;44.79
22241;BME280;11289;52.524;13.694;2022-09-09T13:38:28;100488.13;;;25.82;45.41
22241;BME280;11289;52.524;13.694;2022-09-09T13:40:59;100502.44;;;25.78;44.72
22241;BME280;11289;52.524;13.694;2022-09-09T13:43:31;100493.78;;;25.65;45.51
22241;BME280;11289;52.524;13.694;2022-09-09T13:46:06;100491.81;;;25.62;46.15
22241;BME280;11289;52.524;13.694;2022-09-09T13:51:42;100497.69;;;25.51;46.63
22241;BME280;11289;52.524;13.694;2022-09-09T13:54:10;100487.50;;;25.34;46.45
22241;BME280;11289;52.524;13.694;2022-09-09T13:56:39;100500.16;;;25.29;46.41
22241;BME280;11289;52.524;13.694;2022-09-09T13:59:10;100502.34;;;25.22;46.92
22241;BME280;11289;52.524;13.694;2022-09-09T14:01:36;100503.25;;;25.15;46.40
22241;BME280;11289;52.524;13.694;2022-09-09T14:04:03;100504.22;;;25.08;47.56
22241;BME280;11289;52.524;13.694;2022-09-09T14:06:29;100491.06;;;24.94;47.12
22241;BME280;11289;52.524;13.694;2022-09-09T14:08:54;100502.50;;;24.91;47.53
22241;BME280;11289;52.524;13.694;2022-09-09T14:11:20;100509.97;;;24.81;48.48
22241;BME280;11289;52.524;13.694;2022-09-09T14:13:47;100505.28;;;24.71;48.89
22241;BME280;11289;52.524;13.694;2022-09-09T14:16:15;100505.84;;;24.62;50.51
22241;BME280;11289;52.524;13.694;2022-09-09T14:18:40;100500.59;;;24.57;49.89
22241;BME280;11289;52.524;13.694;2022-09-09T14:21:06;100495.78;;;24.54;50.24
22241;BME280;11289;52.524;13.694;2022-09-09T14:23:31;100501.53;;;24.50;49.48
22241;BME280;11289;52.524;13.694;2022-09-09T14:25:57;100494.38;;;24.42;50.84
22241;BME280;11289;52.524;13.694;2022-09-09T14:28:58;100492.44;;;24.35;50.52
22241;BME280;11289;52.524;13.694;2022-09-09T14:31:24;100493.38;;;24.28;50.09
22241;BME280;11289;52.524;13.694;2022-09-09T14:33:49;100486.63;;;24.19;49.77
22241;BME280;11289;52.524;13.694;2022-09-09T14:36:16;100482.88;;;24.25;50.17
22241;BME280;11289;52.524;13.694;2022-09-09T14:38:41;100481.47;;;24.37;50.29
22241;BME280;11289;52.524;13.694;2022-09-09T14:41:15;100483.25;;;24.51;49.07
22241;BME280;11289;52.524;13.694;2022-09-09T14:43:45;100491.53;;;24.69;49.01
22241;BME280;11289;52.524;13.694;2022-09-09T14:46:16;100485.38;;;24.94;48.47
22241;BME280;11289;52.524;13.694;2022-09-09T14:48:42;100480.06;;;25.20;47.56
22241;BME280;11289;52.524;13.694;2022-09-09T14:51:18;100482.06;;;25.43;45.33
22241;BME280;11289;52.524;13.694;2022-09-09T14:54:16;100477.00;;;25.71;45.38
22241;BME280;11289;52.524;13.694;2022-09-09T14:56:49;100472.53;;;25.90;44.21
22241;BME280;11289;52.524;13.694;2022-09-09T14:59:14;100472.09;;;25.92;43.84
22241;BME280;11289;52.524;13.694;2022-09-09T15:01:40;100476.84;;;25.78;43.77
22241;BME280;11289;52.524;13.694;2022-09-09T15:04:06;100493.56;;;25.56;43.73
22241;BME280;11289;52.524;13.694;2022-09-09T15:06:33;100496.13;;;25.50;44.19
22241;BME280;11289;52.524;13.694;2022-09-09T15:09:00;100503.03;;;25.49;45.67
22241;BME280;11289;52.524;13.694;2022-09-09T15:11:30;100497.41;;;25.46;45.07
22241;BME280;11289;52.524;13.694;2022-09-09T15:13:56;100491.06;;;25.38;44.98
22241;BME280;11289;52.524;13.694;2022-09-09T15:16:25;100498.06;;;25.33;44.81
22241;BME280;11289;52.524;13.694;2022-09-09T15:18:55;100495.47;;;25.19;45.20
22241;BME280;11289;52.524;13.694;2022-09-09T15:21:23;100504.13;;;25.12;46.48
22241;BME280;11289;52.524;13.694;2022-09-09T15:23:49;100503.09;;;25.02;46.52